Latest Weather Observations for Hobart Airport

IDT60801

Issued at 7:21 am EST Saturday 20 July 2019 (issued every 10 minutes, with the page automatically refreshed every 10 minutes)

About weather observations | Map of weather stations | Latest weather observations for TAS | Other Formats
Station Details ID: 094008 Name: HOBART AIRPORT Lat: -42.83 Lon: 147.50 Height: 4.0 m
Data from the previous 72 hours. | See also: Recent months at Hobart Airport
Date/Time
EST
Temp
°C
App
Temp
°C
Dew
Point
°C
Rel
Hum
%
Delta-T
°C
Wind Press
QNH
hPa
Press
MSL
hPa
Rain since
9am
mm
Dir  Spd
km/h
Gust
km/h
Spd
kts
Gust
kts
20/07:00am 6.3 1.1 2.7 78 1.5 NNW 19 28 10 15 1015.3 1015.4 0.2
20/06:30am 5.8 0.6 2.6 80 1.3 NNW 19 26 10 14 1015.1 1015.2 0.2
20/06:00am 6.4 0.7 2.8 78 1.5 N 22 32 12 17 1015.1 1015.2 0.2
20/05:30am 6.0 0.7 2.9 80 1.3 NNW 20 30 11 16 1015.0 1015.1 0.2
20/05:00am 6.1 0.4 2.7 79 1.4 NNW 22 30 12 16 1014.7 1014.8 0.2
20/04:30am 5.2 0.8 2.5 83 1.1 NNW 15 20 8 11 1014.7 1014.8 0.2
20/04:00am 6.3 2.6 2.4 76 1.6 NNW 11 19 6 10 1015.1 1015.2 0.2
20/03:30am 5.6 1.5 2.4 80 1.3 NW 13 15 7 8 1015.3 1015.4 0.2
20/03:00am 5.2 1.1 2.5 83 1.1 NNW 13 17 7 9 1015.3 1015.4 0.2
20/02:30am 6.1 2.1 2.7 79 1.4 NW 13 17 7 9 1015.2 1015.3 0.2
20/02:00am 7.1 3.8 2.5 72 1.9 NNW 9 15 5 8 1015.6 1015.7 0.2
20/01:30am 6.8 2.8 2.7 75 1.7 NNW 13 17 7 9 1016.2 1016.3 0.2
20/01:00am 5.9 1.9 3.0 82 1.2 NNW 13 15 7 8 1016.1 1016.2 0.2
20/12:30am 7.1 2.7 2.8 74 1.8 NW 15 19 8 10 1016.0 1016.1 0.2
20/12:00am 8.4 3.6 2.7 67 2.4 NNW 17 22 9 12 1016.2 1016.3 0.2
 
Date/Time
EST
Temp
°C
App
Temp
°C
Dew
Point
°C
Rel
Hum
%
Delta-T
°C
Wind Press
QNH
hPa
Press
MSL
hPa
Rain since
9am
mm
Dir  Spd
km/h
Gust
km/h
Spd
kts
Gust
kts
19/11:30pm 7.6 4.7 2.8 71 2.0 NNE 7 9 4 5 1016.4 1016.5 0.2
19/11:00pm 8.4 4.4 2.7 67 2.4 NNW 13 19 7 10 1016.6 1016.7 0.2
19/10:30pm 8.7 4.7 3.1 68 2.4 NNW 13 19 7 10 1016.6 1016.7 0.2
19/10:00pm 8.6 4.7 3.2 69 2.3 N 13 15 7 8 1016.4 1016.5 0.2
19/09:30pm 8.8 5.0 3.7 70 2.2 N 13 17 7 9 1016.3 1016.4 0.2
19/09:00pm 9.5 5.3 3.8 67 2.5 NNW 15 20 8 11 1016.2 1016.3 0.2
19/08:30pm 9.2 5.9 4.5 72 2.1 N 11 17 6 9 1016.0 1016.1 0.2
19/08:00pm 10.2 6.1 4.1 66 2.7 N 15 22 8 12 1015.7 1015.8 0.2
19/07:30pm 10.8 6.3 4.1 63 3.0 NW 17 26 9 14 1015.3 1015.4 0.2
19/07:00pm 11.0 5.0 3.5 60 3.3 NW 24 33 13 18 1015.1 1015.2 0.2
19/06:30pm 11.1 6.4 3.4 59 3.4 NW 17 20 9 11 1014.8 1014.9 0.2
19/06:00pm 10.7 7.0 4.2 64 2.9 NNW 13 19 7 10 1014.5 1014.6 0.2
19/05:30pm 12.1 6.9 2.7 52 4.1 NW 19 37 10 20 1014.3 1014.4 0.2
19/05:00pm 11.9 8.4 3.3 55 3.8 NNW 11 19 6 10 1013.8 1013.9 0.2
19/04:30pm 12.3 7.6 3.3 54 4.0 NW 17 24 9 13 1013.2 1013.3 0.2
19/04:00pm 12.5 7.3 2.7 51 4.3 WNW 19 32 10 17 1013.1 1013.1 0.2
19/03:30pm 13.1 6.2 2.4 48 4.7 WNW 28 35 15 19 1012.6 1012.6 0.2
19/03:03pm 13.8 6.8 1.9 44 5.2 W 28 46 15 25 1012.1 1012.1 0.2
19/03:00pm 13.8 7.2 1.9 44 5.2 WNW 26 37 14 20 1012.0 1012.0 0.2
19/02:37pm 14.0 6.5 1.5 42 5.4 WNW 30 48 16 26 1011.8 1011.8 0.2
19/02:30pm 13.7 5.9 1.7 44 5.2 WNW 32 48 17 26 1011.8 1011.8 0.2
19/02:28pm 13.8 6.7 1.6 43 5.3 WNW 28 48 15 26 1011.7 1011.7 0.2
19/02:00pm 14.1 6.1 1.7 43 5.4 WNW 33 44 18 24 1011.5 1011.5 0.2
19/01:30pm 14.3 7.7 2.0 43 5.4 WNW 26 39 14 21 1011.4 1011.4 0.0
19/01:00pm 14.3 6.6 2.3 44 5.3 WNW 32 43 17 23 1011.3 1011.3 0.0
19/12:30pm 13.7 5.7 1.4 43 5.3 WNW 33 48 18 26 1011.4 1011.4 0.0
19/12:09pm 14.0 6.9 1.2 41 5.5 WNW 28 46 15 25 1011.5 1011.5 0.0
19/12:00pm 14.0 6.1 0.9 41 5.6 WNW 32 41 17 22 1011.5 1011.5 0.0
19/11:41am 13.4 5.3 0.9 42 5.3 WNW 33 52 18 28 1011.3 1011.3 0.0
19/11:30am 13.5 6.5 2.0 45 5.0 WNW 28 39 15 21 1011.2 1011.2 0.0
19/11:00am 12.9 4.9 1.5 46 4.9 WNW 33 52 18 28 1011.2 1011.2 0.0
19/10:30am 12.0 3.6 1.4 48 4.5 WNW 35 54 19 29 1011.0 1011.0 0.0
19/10:09am 11.1 2.3 1.3 51 4.1 WNW 37 63 20 34 1010.7 1010.7 0.0
19/10:00am 11.3 2.9 1.3 50 4.2 WNW 35 50 19 27 1010.6 1010.6 0.0
19/09:41am 11.4 3.0 1.5 50 4.2 NW 35 56 19 30 1010.3 1010.3 0.0
19/09:30am 11.0 5.1 1.5 52 4.0 NW 22 32 12 17 1010.4 1010.4 0.0
19/09:00am 9.8 5.2 1.7 57 3.4 NW 15 26 8 14 1010.5 1010.5 0.0
19/08:30am 8.3 4.2 2.0 64 2.6 N 13 19 7 10 1010.4 1010.4 0.0
19/08:00am 7.4 3.6 1.5 66 2.4 NNW 11 19 6 10 1010.1 1010.1 0.0
19/07:30am 8.0 3.3 0.8 60 2.9 WNW 15 19 8 10 1009.6 1009.6 0.0
19/07:00am 8.1 3.8 1.2 62 2.8 NNW 13 19 7 10 1009.4 1009.4 0.0
19/06:30am 7.9 3.6 1.3 63 2.7 NNW 13 17 7 9 1009.0 1009.0 0.0
19/06:00am 8.7 4.7 0.2 55 3.4 NNW 11 24 6 13 1008.0 1008.0 0.0
19/05:30am 6.9 2.3 1.5 68 2.2 NNW 15 22 8 12 1007.8 1007.8 0.0
19/05:00am 8.1 1.0 1.5 63 2.7 NW 28 35 15 19 1007.3 1007.3 0.0
19/04:30am 8.8 3.0 -0.3 53 3.6 WNW 20 32 11 17 1006.8 1006.8 0.0
19/04:00am 8.7 3.5 0.2 55 3.4 WNW 17 22 9 12 1006.4 1006.4 0.0
19/03:30am 7.5 2.2 1.9 67 2.3 W 19 20 10 11 1006.6 1006.6 0.0
19/03:00am 8.2 3.4 2.5 67 2.4 WSW 17 20 9 11 1006.4 1006.4 0.0
19/02:30am 8.6 3.1 1.9 63 2.8 SW 20 26 11 14 1005.9 1005.9 0.0
19/02:00am 9.0 3.2 2.1 62 2.9 SW 22 33 12 18 1005.7 1005.7 0.0
19/01:30am 9.5 1.7 2.7 62 2.9 SW 33 48 18 26 1004.9 1004.9 0.0
19/01:14am 9.7 2.0 2.4 60 3.1 SW 32 50 17 27 1004.6 1004.6 0.0
19/01:00am 10.2 2.9 2.2 57 3.4 WSW 30 46 16 25 1004.3 1004.3 0.0
19/12:30am 10.4 3.9 2.8 59 3.3 W 26 37 14 20 1003.6 1003.6 0.0
19/12:00am 10.9 5.8 3.2 59 3.4 WNW 19 28 10 15 1002.9 1002.9 0.0
 
Date/Time
EST
Temp
°C
App
Temp
°C
Dew
Point
°C
Rel
Hum
%
Delta-T
°C
Wind Press
QNH
hPa
Press
MSL
hPa
Rain since
9am
mm
Dir  Spd
km/h
Gust
km/h
Spd
kts
Gust
kts
18/11:30pm 10.0 5.9 4.4 68 2.5 NW 15 19 8 10 1002.0 1002.0 0.0
18/11:00pm 9.3 5.5 3.8 68 2.4 NW 13 17 7 9 1001.6 1001.6 0.0
18/10:30pm 9.1 6.3 3.3 67 2.5 NNW 7 9 4 5 1001.6 1001.6 0.0
18/10:00pm 8.9 5.8 3.4 68 2.4 NNW 9 13 5 7 1001.9 1001.9 0.0
18/09:30pm 9.3 5.2 2.5 62 2.9 NNW 13 19 7 10 1001.9 1001.9 0.0
18/09:00pm 8.4 5.2 2.8 68 2.4 NNE 9 11 5 6 1002.6 1002.6 0.0
18/08:30pm 9.0 5.7 2.7 64 2.7 NNW 9 13 5 7 1003.1 1003.1 0.0
18/08:00pm 9.4 6.4 2.1 60 3.1 N 7 13 4 7 1003.4 1003.4 0.0
18/07:30pm 9.3 5.5 1.6 58 3.2 N 11 13 6 7 1003.8 1003.8 0.0
18/07:00pm 8.6 4.5 2.4 65 2.6 N 13 19 7 10 1003.7 1003.7 0.0
18/06:30pm 8.8 4.6 1.8 61 2.9 NNW 13 19 7 10 1004.5 1004.5 0.0
18/06:00pm 9.2 4.2 1.2 57 3.3 N 17 24 9 13 1004.9 1004.9 0.0
18/05:30pm 10.0 4.9 0.5 51 3.9 N 17 24 9 13 1005.0 1005.0 0.0
18/05:00pm 9.1 5.8 2.5 63 2.8 NNW 9 15 5 8 1005.6 1005.6 0.0
18/04:30pm 9.7 5.6 2.4 60 3.1 N 13 22 7 12 1006.1 1006.1 0.0
18/04:00pm 10.0 4.6 2.5 59 3.2 N 20 28 11 15 1006.7 1006.7 0.0
18/03:30pm 10.4 3.8 1.9 55 3.6 NNW 26 35 14 19 1006.4 1006.4 0.0
18/03:00pm 10.5 4.9 1.4 53 3.8 NNW 20 32 11 17 1006.6 1006.6 0.0
18/02:30pm 10.4 5.1 1.9 55 3.6 NNW 19 28 10 15 1007.0 1007.0 0.0
18/02:00pm 10.6 5.2 2.2 56 3.6 NNW 20 32 11 17 1007.3 1007.3 0.0
18/01:30pm 10.7 5.4 1.7 53 3.8 NNW 19 32 10 17 1007.3 1007.3 0.0
18/01:00pm 10.7 4.5 2.0 55 3.7 NNW 24 33 13 18 1008.0 1008.0 0.0
18/12:30pm 10.7 4.8 1.4 52 3.9 NNW 22 30 12 16 1008.7 1008.7 0.0
18/12:00pm 10.6 4.4 2.2 56 3.6 NNW 24 32 13 17 1008.9 1008.9 0.0
18/11:30am 10.7 5.1 1.1 51 4.0 NW 20 30 11 16 1009.0 1009.0 0.0
18/11:00am 10.2 4.7 1.9 56 3.5 NW 20 30 11 16 1009.5 1009.5 0.0
18/10:30am 10.6 5.9 1.0 51 4.0 NW 15 26 8 14 1009.7 1009.7 0.0
18/10:00am 9.8 6.4 2.0 58 3.3 N 9 13 5 7 1010.0 1010.0 0.0
18/09:30am 9.7 6.7 0.9 54 3.6 NNE 6 11 3 6 1009.9 1009.9 0.0
18/09:00am 8.0 4.5 1.1 62 2.8 N 9 13 5 7 1010.0 1010.0 1.4
18/08:30am 4.9 3.2 1.6 79 1.3 CALM 0 0 0 0 1010.0 1010.0 1.4
18/08:00am 5.2 1.9 0.3 70 1.9 N 7 9 4 5 1009.8 1009.8 1.4
18/07:30am 6.1 2.8 0.2 66 2.3 NW 7 11 4 6 1009.5 1009.5 1.4
18/07:00am 5.8 2.6 1.0 71 1.9 N 7 11 4 6 1009.1 1009.1 1.4
18/06:30am 7.4 2.8 1.5 66 2.4 WNW 15 19 8 10 1008.8 1008.8 1.4
18/06:00am 7.2 3.5 2.1 70 2.1 WNW 11 13 6 7 1008.5 1008.5 1.4
18/05:30am 7.0 3.2 1.9 70 2.1 NW 11 15 6 8 1008.0 1008.0 1.4
18/05:00am 8.0 3.8 1.7 64 2.6 WNW 13 19 7 10 1007.6 1007.6 1.4
18/04:30am 7.2 3.0 1.8 68 2.2 NW 13 17 7 9 1007.3 1007.3 1.4
18/04:00am 8.2 2.9 1.9 64 2.6 W 19 28 10 15 1006.8 1006.8 1.4
18/03:30am 8.1 3.1 1.5 63 2.7 W 17 30 9 16 1006.4 1006.4 1.4
18/03:00am 8.1 2.5 1.2 62 2.8 W 20 30 11 16 1006.1 1006.1 1.4
18/02:30am 7.9 2.8 1.0 61 2.8 W 17 28 9 15 1005.6 1005.6 1.4
18/02:00am 7.8 0.3 1.2 63 2.7 WSW 30 37 16 20 1004.9 1004.9 1.4
18/01:35am 8.1 0.5 0.6 59 3.0 WSW 30 48 16 26 1004.1 1004.1 1.4
18/01:30am 7.9 -0.2 1.0 61 2.8 WSW 33 50 18 27 1004.3 1004.3 1.4
18/01:19am 8.0 0.8 0.5 59 3.0 WSW 28 50 15 27 1004.1 1004.1 1.4
18/01:00am 7.8 2.1 0.3 59 3.0 W 20 32 11 17 1004.0 1004.0 1.4
18/12:30am 7.8 0.9 0.3 59 3.0 WSW 26 41 14 22 1003.1 1003.1 1.4
18/12:00am 8.0 0.8 0.5 59 3.0 WSW 28 37 15 20 1003.0 1003.0 1.4
 
Date/Time
EST
Temp
°C
App
Temp
°C
Dew
Point
°C
Rel
Hum
%
Delta-T
°C
Wind Press
QNH
hPa
Press
MSL
hPa
Rain since
9am
mm
Dir  Spd
km/h
Gust
km/h
Spd
kts
Gust
kts
17/11:32pm 7.5 -1.3 1.1 64 2.6 WSW 37 56 20 30 1002.5 1002.5 1.4
17/11:30pm 7.6 -1.7 0.9 62 2.7 WSW 39 56 21 30 1002.5 1002.5 1.4
17/11:21pm 8.1 1.2 0.4 58 3.1 WSW 26 48 14 26 1002.3 1002.3 1.4
17/11:00pm 6.8 2.2 1.6 69 2.1 WNW 15 20 8 11 1002.1 1002.1 1.4
17/10:30pm 7.2 2.3 1.8 68 2.2 SW 17 32 9 17 1002.0 1002.0 1.4
17/10:00pm 7.1 0.2 2.6 73 1.9 WSW 28 48 15 26 1002.1 1002.1 1.4
17/09:56pm 7.1 -0.2 2.6 73 1.9 WSW 30 54 16 29 1002.0 1002.0 1.4
17/09:51pm 7.5 1.3 1.9 67 2.3 WSW 24 54 13 29 1001.8 1001.8 1.4
17/09:30pm 6.7 1.4 3.1 78 1.5 WNW 20 28 11 15 1001.5 1001.5 1.2
17/09:00pm 7.2 0.3 2.7 73 1.9 WNW 28 35 15 19 1001.2 1001.2 0.8
17/08:30pm 7.6 1.0 2.1 68 2.3 WNW 26 37 14 20 1000.3 1000.3 0.8
17/08:00pm 7.5 2.1 2.5 70 2.1 WNW 20 30 11 16 999.9 999.9 0.6
17/07:30pm 7.8 2.3 2.0 67 2.4 WNW 20 30 11 16 1000.5 1000.5 0.6
17/07:00pm 7.9 1.2 1.3 63 2.7 WNW 26 35 14 19 999.4 999.4 0.6
17/06:30pm 8.1 3.2 1.8 64 2.6 W 17 30 9 16 999.1 999.1 0.6
17/06:16pm 8.6 0.2 1.3 60 3.0 W 35 54 19 29 999.1 999.1 0.6
17/06:00pm 9.1 0.9 0.2 53 3.6 W 33 44 18 24 998.7 998.7 0.6
17/05:41pm 9.5 2.3 0.7 54 3.6 WNW 28 46 15 25 998.5 998.5 0.6
17/05:30pm 9.2 2.1 1.5 58 3.2 W 28 33 15 18 998.2 998.2 0.6
17/05:00pm 9.1 3.7 2.3 62 2.9 WNW 20 33 11 18 998.1 998.1 0.6
17/04:30pm 9.6 2.4 3.2 64 2.8 WNW 30 44 16 24 997.7 997.7 0.6
17/04:00pm 9.6 5.2 4.7 71 2.2 WSW 17 32 9 17 998.1 998.1 0.4
17/03:30pm 10.9 5.4 4.0 62 3.1 WNW 22 35 12 19 997.6 997.6 0.2
17/03:00pm 11.2 5.8 4.6 64 3.0 WNW 22 32 12 17 997.1 997.2 0.2
17/02:30pm 10.5 3.2 5.5 71 2.3 WNW 33 41 18 22 997.5 997.5 0.0
17/02:00pm 11.8 5.2 4.3 60 3.4 NW 28 50 15 27 997.1 997.2 0.0
17/01:51pm 12.0 4.8 3.2 55 3.9 WNW 30 50 16 27 997.0 997.1 0.0
17/01:30pm 12.7 6.0 3.4 53 4.1 WNW 28 39 15 21 997.4 997.4 0.0
17/01:00pm 13.2 6.3 2.6 48 4.7 NW 28 46 15 25 996.8 996.9 0.0
17/12:30pm 12.5 6.6 3.9 56 3.9 NNW 24 37 13 20 997.4 997.4 0.0
17/12:00pm 12.9 7.8 3.3 52 4.3 NNW 19 41 10 22 998.4 998.4 0.0
17/11:30am 12.9 7.7 3.3 52 4.3 NW 20 30 11 16 999.4 999.4 0.0
17/11:00am 12.8 7.2 3.2 52 4.3 NW 22 30 12 16 999.9 999.9 0.0
17/10:30am 12.1 5.7 3.4 55 3.9 NNW 26 39 14 21 1000.5 1000.5 0.0
17/10:00am 11.8 5.8 3.5 57 3.7 NNW 24 33 13 18 1001.0 1001.0 0.0
17/09:30am 11.5 5.6 3.9 59 3.4 NNW 24 33 13 18 1001.6 1001.6 0.0
17/09:00am 11.1 4.4 3.4 59 3.4 N 28 37 15 20 1001.9 1001.9 0.0
17/08:30am 10.4 5.6 4.4 66 2.7 NNW 19 30 10 16 1002.7 1002.7 0.0
17/08:00am 10.3 5.4 4.3 66 2.7 NNW 19 26 10 14 1003.2 1003.2 0.0
17/07:30am 9.7 5.2 4.3 69 2.4 NNW 17 20 9 11 1003.7 1003.7 0.0

Other formats

Comma delimited format used in spreadsheet applications
http://www.bom.gov.au/fwo/IDT60801/IDT60801.94975.axf

JavaScript Object Notation format (JSON) in row-major order
http://www.bom.gov.au/fwo/IDT60801/IDT60801.94975.json

Data quality

Most of these data are generated automatically and are frequently updated. Quality checks on data are not normally performed. It is possible for incorrect values to appear. Refer to information at About Latest Weather Observations and please check the disclaimer before using these data.